createdAt,value
2023-02-15T00:01:18.210Z,27.65
2023-02-15T00:03:45.834Z,27.64
2023-02-15T00:06:13.458Z,27.76
2023-02-15T00:08:41.152Z,27.61
2023-02-15T00:11:09.115Z,27.76
2023-02-15T00:13:37.189Z,27.67
2023-02-15T00:16:04.992Z,27.72
2023-02-15T00:18:34.071Z,27.71
2023-02-15T00:21:04.897Z,27.56
2023-02-15T00:23:32.560Z,27.75
2023-02-15T00:26:07.205Z,27.72
2023-02-15T00:28:34.950Z,27.87
2023-02-15T00:31:06.610Z,27.58
2023-02-15T00:33:35.709Z,27.72
2023-02-15T00:36:03.532Z,27.70
2023-02-15T00:38:31.326Z,27.73
2023-02-15T00:41:00.299Z,27.71
2023-02-15T00:43:28.033Z,27.60
2023-02-15T00:45:55.739Z,27.72
2023-02-15T00:48:23.438Z,27.56
2023-02-15T00:50:52.869Z,27.69
2023-02-15T00:53:20.592Z,27.56
2023-02-15T00:55:48.224Z,27.69
2023-02-15T00:58:16.225Z,27.77
2023-02-15T01:00:44.700Z,27.73
2023-02-15T01:03:12.387Z,27.77
2023-02-15T01:05:40.079Z,27.73
2023-02-15T01:08:09.070Z,27.75
2023-02-15T01:10:36.820Z,27.73
2023-02-15T01:13:04.583Z,27.64
2023-02-15T01:15:32.299Z,27.62
2023-02-15T01:17:59.981Z,27.70
2023-02-15T01:20:28.153Z,27.75
2023-02-15T01:22:55.817Z,27.81
2023-02-15T01:25:25.069Z,27.62
2023-02-15T01:27:52.709Z,27.67
2023-02-15T01:30:20.393Z,27.70
2023-02-15T01:32:48.025Z,27.76
2023-02-15T01:35:15.750Z,27.70
2023-02-15T01:37:43.433Z,27.72
2023-02-15T01:40:13.732Z,27.70
2023-02-15T01:42:42.857Z,27.66
2023-02-15T01:45:16.941Z,27.69
2023-02-15T01:47:45.037Z,27.82
2023-02-15T01:50:14.350Z,27.72
2023-02-15T01:52:42.639Z,27.67
2023-02-15T01:55:10.291Z,27.48
2023-02-15T01:57:37.931Z,27.66
2023-02-15T02:00:07.893Z,27.64
2023-02-15T02:02:35.639Z,27.58
2023-02-15T02:05:07.356Z,27.57
2023-02-15T02:07:35.633Z,27.64
2023-02-15T02:10:03.384Z,27.61
2023-02-15T02:12:31.028Z,27.63
2023-02-15T02:14:58.617Z,27.63
2023-02-15T02:17:29.402Z,27.62
2023-02-15T02:20:11.262Z,27.54
2023-02-15T02:22:59.855Z,27.68
2023-02-15T02:25:42.345Z,27.56
2023-02-15T02:28:12.964Z,27.74
2023-02-15T02:30:58.525Z,27.63
2023-02-15T02:33:35.912Z,27.45
2023-02-15T02:36:07.080Z,27.61
2023-02-15T02:38:36.084Z,27.61
2023-02-15T02:41:07.025Z,27.69
2023-02-15T02:43:35.920Z,27.65
2023-02-15T02:46:05.111Z,27.61
2023-02-15T02:48:33.047Z,27.54
2023-02-15T02:51:02.200Z,27.63
2023-02-15T02:53:48.353Z,27.56
2023-02-15T02:56:17.963Z,27.56
2023-02-15T02:58:47.001Z,27.56
2023-02-15T03:01:15.864Z,27.49
2023-02-15T03:03:44.071Z,27.56
2023-02-15T03:06:13.388Z,27.58
2023-02-15T03:08:42.588Z,27.41
2023-02-15T03:11:10.964Z,27.54
2023-02-15T03:13:38.705Z,27.54
2023-02-15T03:16:23.975Z,27.53
2023-02-15T03:18:58.909Z,27.54
2023-02-15T03:21:30.026Z,27.49
2023-02-15T03:23:59.295Z,27.57
2023-02-15T03:26:26.961Z,27.49
2023-02-15T03:28:55.033Z,27.52
2023-02-15T03:31:22.904Z,27.39
2023-02-15T03:33:52.258Z,27.50
2023-02-15T03:36:20.870Z,27.53
2023-02-15T03:38:51.513Z,27.38
2023-02-15T03:41:19.307Z,27.47
2023-02-15T03:43:47.886Z,27.32
2023-02-15T03:46:18.557Z,27.36
2023-02-15T03:48:47.873Z,27.48
2023-02-15T03:51:34.283Z,27.39
2023-02-15T03:54:03.363Z,27.37
2023-02-15T03:56:31.140Z,27.45
2023-02-15T03:59:15.859Z,27.47
2023-02-15T04:01:59.284Z,27.44
2023-02-15T04:04:27.880Z,27.41
2023-02-15T04:06:55.505Z,27.22
2023-02-15T04:09:42.070Z,27.38
2023-02-15T04:12:09.844Z,27.35
2023-02-15T04:14:54.625Z,27.29
2023-02-15T04:17:22.308Z,27.32
2023-02-15T04:20:07.269Z,27.25
2023-02-15T04:22:52.335Z,27.34
2023-02-15T04:25:21.350Z,27.43
2023-02-15T04:27:50.152Z,27.29
2023-02-15T04:30:18.164Z,27.17
2023-02-15T04:32:45.834Z,27.54
2023-02-15T04:35:13.462Z,27.37
2023-02-15T04:37:41.098Z,27.21
2023-02-15T04:40:09.094Z,27.34
2023-02-15T04:42:38.172Z,27.22
2023-02-15T04:45:06.094Z,27.21
2023-02-15T04:47:33.767Z,27.40
2023-02-15T04:50:01.666Z,27.38
2023-02-15T04:52:29.405Z,27.33
2023-02-15T04:54:57.019Z,27.24
2023-02-15T04:57:24.653Z,27.37
2023-02-15T04:59:53.652Z,27.36
2023-02-15T05:02:21.492Z,27.11
2023-02-15T05:04:49.248Z,27.27
2023-02-15T05:07:16.863Z,27.40
2023-02-15T05:09:44.524Z,27.44
2023-02-15T05:12:12.244Z,27.29
2023-02-15T05:14:40.014Z,27.27
2023-02-15T05:17:09.057Z,27.26
2023-02-15T05:19:36.709Z,27.21
2023-02-15T05:22:04.328Z,27.14
2023-02-15T05:24:49.455Z,27.20
2023-02-15T05:27:34.259Z,27.21
2023-02-15T05:30:02.074Z,27.29
2023-02-15T05:32:31.253Z,27.17
2023-02-15T05:34:59.061Z,27.11
2023-02-15T05:37:26.745Z,27.20
2023-02-15T05:39:54.413Z,27.15
2023-02-15T05:42:22.126Z,27.14
2023-02-15T05:44:49.791Z,27.20
2023-02-15T05:47:17.519Z,27.21
2023-02-15T05:49:46.517Z,27.15
2023-02-15T05:52:14.221Z,27.17
2023-02-15T05:54:41.929Z,27.26
2023-02-15T05:57:09.560Z,27.10
2023-02-15T05:59:37.262Z,27.14
2023-02-15T06:02:05.008Z,27.17
2023-02-15T06:04:32.738Z,27.03
2023-02-15T06:07:01.845Z,27.19
2023-02-15T06:09:29.553Z,27.02
2023-02-15T06:11:57.217Z,26.99
2023-02-15T06:14:24.821Z,27.07
2023-02-15T06:16:52.487Z,27.04
2023-02-15T06:19:20.091Z,27.10
2023-02-15T06:21:47.704Z,27.01
2023-02-15T06:24:16.696Z,26.96
2023-02-15T06:26:44.328Z,26.85
2023-02-15T06:29:12.003Z,26.91
2023-02-15T06:31:39.685Z,26.91
2023-02-15T06:34:07.401Z,26.96
2023-02-15T06:36:35.104Z,26.88
2023-02-15T06:39:03.255Z,26.81
2023-02-15T06:41:32.367Z,26.75
2023-02-15T06:44:00.482Z,26.85
2023-02-15T06:46:28.157Z,26.75
2023-02-15T06:48:55.901Z,26.86
2023-02-15T06:51:23.529Z,26.73
2023-02-15T06:53:51.181Z,26.68
2023-02-15T06:56:18.914Z,26.62
2023-02-15T06:58:50.252Z,26.87
2023-02-15T07:01:18.024Z,26.89
2023-02-15T07:03:45.658Z,26.68
2023-02-15T07:06:13.301Z,26.72
2023-02-15T07:08:41.086Z,26.60
2023-02-15T07:11:26.178Z,26.81
2023-02-15T07:13:55.343Z,26.81
2023-02-15T07:16:23.087Z,26.68
2023-02-15T07:18:50.845Z,26.75
2023-02-15T07:21:18.634Z,26.72
2023-02-15T07:23:46.344Z,26.68
2023-02-15T07:26:14.186Z,26.90
2023-02-15T07:28:41.824Z,26.61
2023-02-15T07:31:11.186Z,26.73
2023-02-15T07:33:38.862Z,26.68
2023-02-15T07:36:07.332Z,26.63
2023-02-15T07:38:35.328Z,26.64
2023-02-15T07:41:03.498Z,26.60
2023-02-15T07:43:31.336Z,26.56
2023-02-15T07:46:01.132Z,26.67
2023-02-15T07:48:31.025Z,26.51
2023-02-15T07:51:00.474Z,26.49
2023-02-15T07:53:28.594Z,26.64
2023-02-15T07:55:56.995Z,26.66
2023-02-15T07:58:47.350Z,26.79
2023-02-15T08:01:14.998Z,26.74
2023-02-15T08:03:44.687Z,26.79
2023-02-15T08:06:14.219Z,26.52
2023-02-15T08:08:42.564Z,26.67
2023-02-15T08:11:30.093Z,26.55
2023-02-15T08:14:02.033Z,26.63
2023-02-15T08:16:30.672Z,26.72
2023-02-15T08:19:01.103Z,26.72
2023-02-15T08:21:29.199Z,26.62
2023-02-15T08:23:57.603Z,26.65
2023-02-15T08:26:25.318Z,26.73
2023-02-15T08:28:53.828Z,26.62
2023-02-15T08:31:21.671Z,26.53
2023-02-15T08:33:50.363Z,26.63
2023-02-15T08:36:19.837Z,26.45
2023-02-15T08:38:47.622Z,26.65
2023-02-15T08:41:18.224Z,26.54
2023-02-15T08:43:45.913Z,26.43
2023-02-15T08:46:14.351Z,26.58
2023-02-15T08:48:45.628Z,26.52
2023-02-15T08:51:14.394Z,26.45
2023-02-15T08:53:43.760Z,26.40
2023-02-15T08:56:12.395Z,26.44
2023-02-15T08:58:40.136Z,26.33
2023-02-15T09:01:12.189Z,26.33
2023-02-15T09:03:39.952Z,26.28
2023-02-15T09:06:08.467Z,26.25
2023-02-15T09:08:36.265Z,26.33
2023-02-15T09:11:09.576Z,26.53
2023-02-15T09:13:37.212Z,26.48
2023-02-15T09:16:05.900Z,26.34
2023-02-15T09:18:36.355Z,26.32
2023-02-15T09:21:08.688Z,26.35
2023-02-15T09:23:36.417Z,26.34
2023-02-15T09:26:04.863Z,26.53
2023-02-15T09:28:35.486Z,26.43
2023-02-15T09:31:09.616Z,26.49
2023-02-15T09:33:38.107Z,26.40
2023-02-15T09:36:06.004Z,26.29
2023-02-15T09:38:34.512Z,26.48
2023-02-15T09:41:06.497Z,26.26
2023-02-15T09:43:37.846Z,26.48
2023-02-15T09:46:20.361Z,26.36
2023-02-15T09:48:49.594Z,26.34
2023-02-15T09:51:27.011Z,26.13
2023-02-15T09:53:59.231Z,26.20
2023-02-15T09:56:28.954Z,26.08
2023-02-15T09:59:00.923Z,26.35
2023-02-15T10:01:31.492Z,26.31
2023-02-15T10:04:07.353Z,26.20
2023-02-15T10:06:43.166Z,26.26
2023-02-15T10:09:32.772Z,26.06
2023-02-15T10:12:10.008Z,26.26
2023-02-15T10:14:46.349Z,26.37
2023-02-15T10:17:18.307Z,25.93
2023-02-15T10:19:48.330Z,26.08
2023-02-15T10:22:19.440Z,26.17
2023-02-15T10:24:51.360Z,26.13
2023-02-15T10:27:20.939Z,26.02
2023-02-15T10:29:52.200Z,26.14
2023-02-15T10:32:24.400Z,26.18
2023-02-15T10:34:53.898Z,26.13
2023-02-15T10:37:34.453Z,26.04
2023-02-15T10:40:04.705Z,26.02
2023-02-15T10:42:33.143Z,26.11
2023-02-15T10:45:14.341Z,26.07
2023-02-15T10:47:45.462Z,26.10
2023-02-15T10:50:35.670Z,26.07
2023-02-15T10:53:08.534Z,25.83
2023-02-15T10:55:40.856Z,26.06
2023-02-15T10:58:11.486Z,25.81
2023-02-15T11:00:42.946Z,26.01
2023-02-15T11:03:17.773Z,25.97
2023-02-15T11:05:50.884Z,25.77
2023-02-15T11:08:18.584Z,25.88
2023-02-15T11:10:47.261Z,26.06
2023-02-15T11:13:16.545Z,25.76
2023-02-15T11:15:46.527Z,25.77
2023-02-15T11:18:19.309Z,25.71
2023-02-15T11:20:47.772Z,25.66
2023-02-15T11:23:17.243Z,25.56
2023-02-15T11:25:47.376Z,25.91
2023-02-15T11:28:17.417Z,25.75
2023-02-15T11:30:48.602Z,25.74
2023-02-15T11:33:19.363Z,25.73
2023-02-15T11:35:50.294Z,25.61
2023-02-15T11:38:18.874Z,25.45
2023-02-15T11:40:48.837Z,25.58
2023-02-15T11:43:19.057Z,25.64
2023-02-15T11:45:48.257Z,25.37
2023-02-15T11:48:16.813Z,25.57
2023-02-15T11:50:45.693Z,25.51
2023-02-15T11:53:15.354Z,25.53
2023-02-15T11:55:43.532Z,25.75
2023-02-15T11:58:12.897Z,25.50
2023-02-15T12:00:41.555Z,25.51
2023-02-15T12:03:17.221Z,25.46
2023-02-15T12:05:45.361Z,25.47
2023-02-15T12:08:16.115Z,25.48
2023-02-15T12:10:45.063Z,25.39
2023-02-15T12:13:17.397Z,25.47
2023-02-15T12:15:47.573Z,25.39
2023-02-15T12:18:21.800Z,25.27
2023-02-15T12:20:49.476Z,25.69
2023-02-15T12:23:17.451Z,25.44
2023-02-15T12:25:46.832Z,25.56
2023-02-15T12:28:23.741Z,25.67
2023-02-15T12:30:52.368Z,25.38
2023-02-15T12:33:23.650Z,25.39
2023-02-15T12:35:54.335Z,25.59
2023-02-15T12:38:23.706Z,25.30
2023-02-15T12:40:59.080Z,25.30
2023-02-15T12:43:27.357Z,25.38
2023-02-15T12:45:55.810Z,25.60
2023-02-15T12:48:27.219Z,25.26
2023-02-15T12:50:57.247Z,25.34
2023-02-15T12:53:31.649Z,25.46
2023-02-15T12:56:01.065Z,25.34
2023-02-15T12:58:28.813Z,25.48
2023-02-15T13:01:07.781Z,25.39
2023-02-15T13:03:36.829Z,25.44
2023-02-15T13:06:09.484Z,25.47
2023-02-15T13:08:38.012Z,25.33
2023-02-15T13:11:06.783Z,25.46
2023-02-15T13:13:35.452Z,25.23
2023-02-15T13:16:04.696Z,25.61
2023-02-15T13:18:33.442Z,25.45
2023-02-15T13:21:10.765Z,25.29
2023-02-15T13:23:38.415Z,25.36
2023-02-15T13:26:06.508Z,25.34
2023-02-15T13:28:38.930Z,25.29
2023-02-15T13:31:06.750Z,25.47
2023-02-15T13:33:34.730Z,25.24
2023-02-15T13:36:08.976Z,25.46
2023-02-15T13:38:54.626Z,25.20
2023-02-15T13:41:22.707Z,25.18
2023-02-15T13:43:52.813Z,25.26
2023-02-15T13:46:23.219Z,25.47
2023-02-15T13:48:54.300Z,25.36
2023-02-15T13:51:26.436Z,25.18
2023-02-15T13:54:07.068Z,25.31
2023-02-15T13:56:37.723Z,25.33
2023-02-15T13:59:11.084Z,25.37
2023-02-15T14:01:40.433Z,25.30
2023-02-15T14:04:23.009Z,25.13
2023-02-15T14:07:18.128Z,25.18
2023-02-15T14:09:49.080Z,25.34
2023-02-15T14:12:22.617Z,25.08
2023-02-15T14:14:54.611Z,25.27
2023-02-15T14:17:24.326Z,25.38
2023-02-15T14:19:53.427Z,25.25
2023-02-15T14:22:23.500Z,25.36
2023-02-15T14:24:55.504Z,25.18
2023-02-15T14:27:24.660Z,25.20
2023-02-15T14:29:53.669Z,25.07
2023-02-15T14:32:23.312Z,25.34
2023-02-15T14:34:51.744Z,25.34
2023-02-15T14:37:21.652Z,25.35
2023-02-15T14:40:07.756Z,25.28
2023-02-15T14:42:39.287Z,24.97
2023-02-15T14:45:07.792Z,25.39
2023-02-15T14:47:36.732Z,25.28
2023-02-15T14:50:19.759Z,25.26
2023-02-15T14:53:02.859Z,25.35
2023-02-15T14:55:36.856Z,25.42
2023-02-15T14:58:12.192Z,25.49
2023-02-15T15:00:40.303Z,25.30
2023-02-15T15:03:20.144Z,25.27
2023-02-15T15:05:51.459Z,25.50
2023-02-15T15:08:23.986Z,25.25
2023-02-15T15:10:51.648Z,25.49
2023-02-15T15:13:39.288Z,25.38
2023-02-15T15:16:25.524Z,25.33
2023-02-15T15:18:54.793Z,25.35
2023-02-15T15:21:53.235Z,25.57
2023-02-15T15:24:36.277Z,25.61
2023-02-15T15:27:25.772Z,25.55
2023-02-15T15:29:53.474Z,25.35
2023-02-15T15:32:21.575Z,25.35
2023-02-15T15:35:02.755Z,25.45
2023-02-15T15:37:44.500Z,25.51
2023-02-15T15:40:27.470Z,25.34
2023-02-15T15:43:10.136Z,25.50
2023-02-15T15:45:53.126Z,25.41
2023-02-15T15:48:36.301Z,25.61
2023-02-15T15:51:06.454Z,25.47
2023-02-15T15:53:35.386Z,25.39
2023-02-15T15:56:04.483Z,25.37
2023-02-15T15:58:32.691Z,25.68
2023-02-15T16:01:02.099Z,25.63
2023-02-15T16:03:30.133Z,25.57
2023-02-15T16:06:02.285Z,25.78
2023-02-15T16:08:33.306Z,25.79
2023-02-15T16:11:01.576Z,25.88
2023-02-15T16:13:29.328Z,25.68
2023-02-15T16:15:57.352Z,25.68
2023-02-15T16:18:26.268Z,25.62
2023-02-15T16:20:54.924Z,25.81
2023-02-15T16:23:34.653Z,25.64
2023-02-15T16:26:04.362Z,25.82
2023-02-15T16:28:32.286Z,25.82
2023-02-15T16:31:07.307Z,25.70
2023-02-15T16:33:38.713Z,25.80
2023-02-15T16:36:09.524Z,25.99
2023-02-15T16:38:55.152Z,25.96
2023-02-15T16:41:23.893Z,25.58
2023-02-15T16:43:51.799Z,25.89
2023-02-15T16:46:29.595Z,25.74
2023-02-15T16:48:59.927Z,25.88
2023-02-15T16:51:28.689Z,25.92
2023-02-15T16:53:58.752Z,25.74
2023-02-15T16:56:26.485Z,25.75
2023-02-15T16:58:55.060Z,25.91
2023-02-15T17:01:24.164Z,25.79
2023-02-15T17:03:52.924Z,25.96
2023-02-15T17:06:21.553Z,25.75
2023-02-15T17:08:49.900Z,25.95
2023-02-15T17:11:19.466Z,26.05
2023-02-15T17:14:06.543Z,25.88
2023-02-15T17:16:34.624Z,25.96
2023-02-15T17:19:03.118Z,26.03
2023-02-15T17:21:32.852Z,25.90
2023-02-15T17:24:01.926Z,26.01
2023-02-15T17:26:31.273Z,25.94
2023-02-15T17:29:01.080Z,25.99
2023-02-15T17:31:29.874Z,26.02
2023-02-15T17:34:00.677Z,25.98
2023-02-15T17:36:30.358Z,25.77
2023-02-15T17:39:02.864Z,26.28
2023-02-15T17:41:32.307Z,25.97
2023-02-15T17:44:01.505Z,25.95
2023-02-15T17:46:29.279Z,25.91
2023-02-15T17:48:58.428Z,25.99
2023-02-15T17:51:26.825Z,26.24
2023-02-15T17:54:12.502Z,26.11
2023-02-15T17:56:41.598Z,26.11
2023-02-15T17:59:11.969Z,26.14
2023-02-15T18:01:57.546Z,26.17
2023-02-15T18:04:43.154Z,25.96
2023-02-15T18:07:27.883Z,26.01
2023-02-15T18:10:13.425Z,26.18
2023-02-15T18:12:42.614Z,26.16
2023-02-15T18:15:12.933Z,26.02
2023-02-15T18:17:41.283Z,26.17
2023-02-15T18:20:12.550Z,26.12
2023-02-15T18:22:40.288Z,26.21
2023-02-15T18:25:11.049Z,26.17
2023-02-15T18:27:38.849Z,26.18
2023-02-15T18:30:09.568Z,26.22
2023-02-15T18:32:37.566Z,26.06
2023-02-15T18:35:06.429Z,26.23
2023-02-15T18:37:34.142Z,26.28
2023-02-15T18:40:03.705Z,26.20
2023-02-15T18:42:33.177Z,26.27
2023-02-15T18:45:01.360Z,26.21
2023-02-15T18:47:31.259Z,26.06
2023-02-15T18:49:59.617Z,25.98
2023-02-15T18:52:27.591Z,26.04
2023-02-15T18:54:57.056Z,26.27
2023-02-15T18:57:24.696Z,26.03
2023-02-15T18:59:53.550Z,26.26
2023-02-15T19:02:21.247Z,26.25
2023-02-15T19:04:51.009Z,26.27
2023-02-15T19:07:19.544Z,26.22
2023-02-15T19:09:48.182Z,26.21
2023-02-15T19:12:16.550Z,26.30
2023-02-15T19:14:44.278Z,26.24
2023-02-15T19:17:14.892Z,25.98
2023-02-15T19:19:43.309Z,26.01
2023-02-15T19:22:14.390Z,26.21
2023-02-15T19:24:44.634Z,26.17
2023-02-15T19:27:14.325Z,26.15
2023-02-15T19:29:42.725Z,25.93
2023-02-15T19:32:11.033Z,26.14
2023-02-15T19:34:38.891Z,26.14
2023-02-15T19:37:08.722Z,25.97
2023-02-15T19:39:38.901Z,25.94
2023-02-15T19:42:07.299Z,25.97
2023-02-15T19:44:35.050Z,26.19
2023-02-15T19:47:03.440Z,26.16
2023-02-15T19:49:32.427Z,26.06
2023-02-15T19:52:00.141Z,26.20
2023-02-15T19:54:31.682Z,25.98
2023-02-15T19:57:00.943Z,25.87
2023-02-15T19:59:29.579Z,26.19
2023-02-15T20:01:57.365Z,26.07
2023-02-15T20:04:26.818Z,26.17
2023-02-15T20:06:55.472Z,26.06
2023-02-15T20:09:24.869Z,26.12
2023-02-15T20:11:52.762Z,26.08
2023-02-15T20:14:22.556Z,26.12
2023-02-15T20:16:50.292Z,26.00
2023-02-15T20:19:18.684Z,26.21
2023-02-15T20:21:46.800Z,26.16
2023-02-15T20:24:16.726Z,26.12
2023-02-15T20:26:44.522Z,26.09
2023-02-15T20:29:14.156Z,26.10
2023-02-15T20:31:43.470Z,26.12
2023-02-15T20:34:11.981Z,26.10
2023-02-15T20:36:39.727Z,26.09
2023-02-15T20:39:13.190Z,26.09
2023-02-15T20:41:46.956Z,26.25
2023-02-15T20:44:22.923Z,26.03
2023-02-15T20:46:52.455Z,25.98
2023-02-15T20:49:21.776Z,26.09
2023-02-15T20:51:50.310Z,25.97
2023-02-15T20:54:19.205Z,26.12
2023-02-15T20:56:46.952Z,26.17
2023-02-15T20:59:22.717Z,26.10
2023-02-15T21:01:50.480Z,25.99
2023-02-15T21:04:20.202Z,25.92
2023-02-15T21:06:48.567Z,25.90
2023-02-15T21:09:16.536Z,26.13
2023-02-15T21:11:45.552Z,25.91
2023-02-15T21:14:22.345Z,26.13
2023-02-15T21:16:50.953Z,26.08
2023-02-15T21:19:20.492Z,25.85
2023-02-15T21:21:49.344Z,26.22
2023-02-15T21:24:17.383Z,26.15
2023-02-15T21:26:46.196Z,26.10
2023-02-15T21:29:17.385Z,25.89
2023-02-15T21:31:47.892Z,25.98
2023-02-15T21:34:15.675Z,26.14
2023-02-15T21:36:46.693Z,25.94
2023-02-15T21:39:15.925Z,26.02
2023-02-15T21:42:01.569Z,25.94
2023-02-15T21:44:46.478Z,26.11
2023-02-15T21:47:36.525Z,25.94
2023-02-15T21:50:24.917Z,26.01
2023-02-15T21:52:53.830Z,26.10
2023-02-15T21:55:21.506Z,26.12
2023-02-15T21:57:49.928Z,26.03
2023-02-15T22:00:18.316Z,26.19
2023-02-15T22:02:46.615Z,25.88
2023-02-15T22:05:14.819Z,25.96
2023-02-15T22:07:43.156Z,26.22
2023-02-15T22:10:12.277Z,26.08
2023-02-15T22:12:40.754Z,26.15
2023-02-15T22:15:08.750Z,26.13
2023-02-15T22:17:37.137Z,26.21
2023-02-15T22:20:07.026Z,26.06
2023-02-15T22:22:35.421Z,25.98
2023-02-15T22:25:03.132Z,26.27
2023-02-15T22:27:32.914Z,25.99
2023-02-15T22:30:00.664Z,26.23
2023-02-15T22:32:29.225Z,26.20
2023-02-15T22:34:56.983Z,26.16
2023-02-15T22:37:24.725Z,26.08
2023-02-15T22:39:52.910Z,26.08
2023-02-15T22:42:24.602Z,26.23
2023-02-15T22:44:54.306Z,26.21
2023-02-15T22:47:22.732Z,26.14
2023-02-15T22:49:51.273Z,26.31
2023-02-15T22:52:19.006Z,26.07
2023-02-15T22:54:47.445Z,26.17
2023-02-15T22:57:16.275Z,26.12
2023-02-15T22:59:44.292Z,26.13
2023-02-15T23:02:13.506Z,26.32
2023-02-15T23:04:41.595Z,26.24
2023-02-15T23:07:11.718Z,26.16
2023-02-15T23:09:39.783Z,26.36
2023-02-15T23:12:08.148Z,26.15
2023-02-15T23:14:36.143Z,26.30
2023-02-15T23:17:03.890Z,26.08
2023-02-15T23:19:33.021Z,26.36
2023-02-15T23:22:00.768Z,26.23
2023-02-15T23:24:28.882Z,26.38
2023-02-15T23:27:16.700Z,26.21
2023-02-15T23:29:44.379Z,26.14
2023-02-15T23:32:12.714Z,26.19
2023-02-15T23:34:41.890Z,26.24
2023-02-15T23:37:11.449Z,26.22
2023-02-15T23:39:56.601Z,26.34
2023-02-15T23:42:25.005Z,26.28
2023-02-15T23:44:52.728Z,26.33
2023-02-15T23:47:21.114Z,26.26
2023-02-15T23:49:50.342Z,26.29
2023-02-15T23:52:17.984Z,26.22
2023-02-15T23:54:45.954Z,26.37
2023-02-15T23:57:13.670Z,26.30
2023-02-15T23:59:41.326Z,26.42
